Time;durP1;ratioP1;P1;durP2;ratioP2;P2;SDS_P1;SDS_P2;PMS_P1;PMS_P2;Temp;Humidity;BMP_temperature;BMP_pressure;BME280_temperature;BME280_humidity;BME280_pressure;Samples;Min_cycle;Max_cycle;Signal;HPM_P1;HPM_P2
2022/03/10 00:02:07;;;;;;;27.58;16.35;;;;;;;2.72;67.50;100838.16;5115126;28;20065;-78
2022/03/10 00:04:36;;;;;;;31.63;16.70;;;;;;;2.69;67.34;100838.19;5097019;28;20068;-76
2022/03/10 00:07:05;;;;;;;33.47;16.65;;;;;;;2.55;67.52;100840.22;5115386;28;20063;-76
2022/03/10 00:09:37;;;;;;;30.58;16.80;;;;;;;2.49;67.76;100845.59;5097021;28;20047;-77
2022/03/10 00:12:06;;;;;;;34.97;16.75;;;;;;;2.48;67.95;100846.47;5096932;28;20089;-77
2022/03/10 00:14:34;;;;;;;32.03;16.00;;;;;;;2.49;67.44;100848.22;5115224;28;20045;-76
2022/03/10 00:17:03;;;;;;;32.50;15.95;;;;;;;2.39;68.10;100850.13;5114850;28;20484;-77
2022/03/10 00:19:31;;;;;;;29.38;15.68;;;;;;;2.47;67.82;100847.38;5096387;28;20051;-77
2022/03/10 00:22:00;;;;;;;28.15;15.27;;;;;;;2.44;67.56;100847.44;5096792;28;20436;-77
2022/03/10 00:24:29;;;;;;;27.92;14.43;;;;;;;2.24;68.88;100859.19;5096269;28;20073;-77
2022/03/10 00:26:58;;;;;;;30.48;14.95;;;;;;;2.26;68.72;100861.78;5096136;28;20054;-76
2022/03/10 00:29:27;;;;;;;28.15;15.48;;;;;;;2.28;68.58;100862.63;5114230;28;20496;-75
2022/03/10 00:31:55;;;;;;;24.70;14.07;;;;;;;2.21;69.12;100867.09;5096508;28;20097;-75
2022/03/10 00:34:23;;;;;;;25.95;13.43;;;;;;;2.33;69.46;100875.72;5114327;28;20043;-75
2022/03/10 00:36:54;;;;;;;24.58;13.93;;;;;;;2.41;69.44;100876.44;5114979;28;20123;-74
2022/03/10 00:39:22;;;;;;;23.55;13.95;;;;;;;2.42;70.10;100872.94;5114351;28;20036;-74
2022/03/10 00:41:51;;;;;;;26.08;13.82;;;;;;;2.49;69.82;100875.41;5114815;28;20079;-72
2022/03/10 00:44:20;;;;;;;24.90;13.48;;;;;;;2.51;70.12;100878.03;5114208;28;20055;-72
2022/03/10 00:46:51;;;;;;;26.55;13.27;;;;;;;2.53;70.37;100881.53;5114754;28;20461;-75
2022/03/10 00:49:19;;;;;;;24.05;13.25;;;;;;;2.56;70.79;100876.19;5114125;28;20044;-75
2022/03/10 00:51:50;;;;;;;24.10;14.30;;;;;;;2.63;70.99;100880.47;5096174;28;20043;-75
2022/03/10 00:54:18;;;;;;;27.48;14.18;;;;;;;2.67;71.06;100886.53;5096588;28;20395;-75
2022/03/10 00:56:47;;;;;;;26.98;14.90;;;;;;;2.64;71.15;100887.47;5076051;28;20067;-74
2022/03/10 00:59:15;;;;;;;26.60;14.25;;;;;;;2.65;71.69;100891.84;5093512;28;20094;-75
2022/03/10 01:01:44;;;;;;;30.60;15.55;;;;;;;2.64;72.22;100895.38;5075513;28;20108;-75
2022/03/10 01:04:13;;;;;;;24.55;13.70;;;;;;;2.73;72.47;100896.97;5093163;28;20046;-75
2022/03/10 01:06:41;;;;;;;25.35;14.00;;;;;;;2.69;72.55;100901.41;5093719;28;20039;-75
2022/03/10 01:09:11;;;;;;;24.40;13.60;;;;;;;2.59;73.18;100902.47;5093056;28;20062;-80
2022/03/10 01:11:39;;;;;;;24.02;13.68;;;;;;;2.57;74.04;100906.91;5093421;28;20077;-75
2022/03/10 01:14:07;;;;;;;23.70;14.30;;;;;;;2.67;74.80;100895.31;5093538;28;20118;-77
2022/03/10 01:16:36;;;;;;;23.77;13.60;;;;;;;2.62;75.54;100904.19;5093093;28;20044;-77
2022/03/10 01:19:07;;;;;;;22.63;13.57;;;;;;;2.66;76.12;100906.75;5093575;28;20054;-76
2022/03/10 01:21:35;;;;;;;25.90;13.95;;;;;;;2.62;77.31;100906.84;5093525;28;20465;-77
2022/03/10 01:24:04;;;;;;;26.30;14.18;;;;;;;2.58;78.39;100908.63;5093432;28;20410;-78
2022/03/10 01:26:32;;;;;;;26.65;15.35;;;;;;;2.70;78.18;100902.28;5093068;28;20192;-76
2022/03/10 01:29:01;;;;;;;28.90;16.33;;;;;;;2.84;77.95;100905.56;5093399;28;20036;-75
2022/03/10 01:31:32;;;;;;;29.25;16.20;;;;;;;2.84;78.18;100910.81;5093080;28;20082;-76
2022/03/10 01:34:00;;;;;;;33.78;17.83;;;;;;;2.74;78.56;100909.25;5093314;28;20044;-75
2022/03/10 01:36:30;;;;;;;30.13;16.90;;;;;;;2.85;77.75;100913.44;5074913;28;20040;-75
2022/03/10 01:38:58;;;;;;;31.10;17.50;;;;;;;2.75;79.00;100911.84;5093457;28;20449;-75
2022/03/10 01:41:26;;;;;;;29.33;16.33;;;;;;;2.80;78.94;100920.56;5093063;28;20040;-76
2022/03/10 01:43:55;;;;;;;30.98;17.10;;;;;;;2.77;79.55;100925.84;5093008;28;20044;-76
2022/03/10 01:46:25;;;;;;;29.40;16.23;;;;;;;2.76;79.69;100923.25;5092641;28;20105;-76
2022/03/10 01:48:53;;;;;;;29.02;15.80;;;;;;;2.67;81.29;100933.94;5093305;28;20032;-76
2022/03/10 01:51:22;;;;;;;27.30;15.27;;;;;;;2.70;81.45;100933.88;5093040;28;20450;-76
2022/03/10 01:53:54;;;;;;;26.63;15.57;;;;;;;2.79;80.91;100931.09;5093098;28;20457;-76
2022/03/10 01:56:24;;;;;;;28.60;15.60;;;;;;;2.74;81.90;100925.91;5092837;28;20040;-76
2022/03/10 01:58:55;;;;;;;27.65;15.10;;;;;;;2.72;82.74;100940.03;5093319;28;20130;-75
2022/03/10 02:01:24;;;;;;;27.85;15.30;;;;;;;2.70;83.29;100937.44;5092456;28;20486;-76
2022/03/10 02:03:52;;;;;;;30.30;15.68;;;;;;;2.67;84.99;100939.22;5093296;28;20048;-75
2022/03/10 02:06:23;;;;;;;26.60;15.85;;;;;;;2.75;84.41;100943.47;5092568;28;20488;-76
2022/03/10 02:11:39;;;;;;;30.38;16.65;;;;;;;2.73;86.38;100947.91;5092711;28;20054;-76
2022/03/10 02:19:35;;;;;;;28.58;15.95;;;;;;;2.91;86.89;100965.16;5096750;28;20142;-76
2022/03/10 02:22:08;;;;;;;28.65;16.10;;;;;;;2.89;88.82;100966.94;5096730;28;20047;-80
2022/03/10 02:24:37;;;;;;;29.10;16.33;;;;;;;2.91;89.17;100969.56;5096723;28;20048;-79
2022/03/10 02:27:16;;;;;;;31.25;18.15;;;;;;;2.92;91.29;100966.91;5096926;28;20044;-76
2022/03/10 02:29:45;;;;;;;28.75;15.93;;;;;;;2.94;90.17;100961.59;5078700;28;20126;-75
2022/03/10 02:32:14;;;;;;;30.25;15.85;;;;;;;3.20;88.93;100975.19;5078583;28;20138;-75
2022/03/10 02:34:43;;;;;;;30.45;17.98;;;;;;;3.22;91.28;100981.28;5078490;28;20075;-76
2022/03/10 02:37:13;;;;;;;29.05;16.33;;;;;;;3.43;88.93;100980.88;5078546;28;20044;-78
2022/03/10 02:39:43;;;;;;;30.13;16.45;;;;;;;3.29;89.44;100980.28;5096664;28;20044;-78
2022/03/10 02:42:12;;;;;;;30.30;16.95;;;;;;;3.33;89.49;100976.69;5078485;28;20044;-78
2022/03/10 02:44:42;;;;;;;32.17;17.45;;;;;;;3.36;91.31;100979.25;5095936;28;20066;-77
2022/03/10 02:47:13;;;;;;;33.35;18.25;;;;;;;3.25;92.22;100980.34;5096452;28;20119;-78
2022/03/10 02:49:42;;;;;;;33.10;18.70;;;;;;;3.32;92.72;100990.75;5095857;28;20040;-77
2022/03/10 02:52:12;;;;;;;30.73;17.58;;;;;;;3.19;94.26;100986.63;5096307;28;20531;-75
2022/03/10 02:54:44;;;;;;;30.60;18.05;;;;;;;3.16;94.60;100982.25;5096497;28;20056;-76
2022/03/10 02:57:15;;;;;;;32.92;17.98;;;;;;;3.13;94.66;100995.50;5095923;28;20043;-76
2022/03/10 02:59:43;;;;;;;29.15;16.52;;;;;;;3.13;94.50;101003.41;5096284;28;20081;-76
2022/03/10 03:02:14;;;;;;;33.13;17.35;;;;;;;3.16;94.28;100999.84;5096245;28;20367;-76
2022/03/10 03:04:42;;;;;;;31.60;16.55;;;;;;;3.15;92.82;101008.66;5077526;28;20048;-76
2022/03/10 03:07:12;;;;;;;29.08;16.45;;;;;;;3.03;93.75;101011.50;5095764;28;20119;-75
2022/03/10 03:09:43;;;;;;;29.02;16.10;;;;;;;3.13;91.54;101010.44;5095440;28;20050;-76
2022/03/10 03:12:11;;;;;;;26.98;16.58;;;;;;;3.08;90.28;101014.91;5095826;28;20048;-75
2022/03/10 03:14:39;;;;;;;27.77;16.77;;;;;;;3.11;88.08;101021.03;5095483;28;20052;-76
2022/03/10 03:17:07;;;;;;;29.48;16.42;;;;;;;3.20;86.60;101019.13;5095938;28;20055;-75
2022/03/10 03:19:36;;;;;;;28.45;16.27;;;;;;;3.06;86.47;101024.63;5094843;28;20481;-75
2022/03/10 03:22:05;;;;;;;30.98;16.92;;;;;;;3.13;85.83;101026.28;5095427;28;20046;-75
2022/03/10 03:24:35;;;;;;;32.92;18.38;;;;;;;3.05;85.94;101036.06;5095073;28;20044;-75
2022/03/10 03:27:03;;;;;;;30.10;17.35;;;;;;;3.11;84.25;101033.34;5076022;28;20060;-75
2022/03/10 03:29:32;;;;;;;32.08;17.63;;;;;;;2.85;85.59;101039.03;5077286;28;20079;-76
2022/03/10 03:32:00;;;;;;;31.52;17.45;;;;;;;2.79;85.48;101028.59;5095607;28;20083;-77
2022/03/10 03:34:28;;;;;;;32.95;17.92;;;;;;;2.61;85.86;101048.19;5094822;28;20050;-75
2022/03/10 03:36:56;;;;;;;33.92;18.02;;;;;;;2.67;84.82;101050.72;5095539;28;20032;-75
2022/03/10 03:39:25;;;;;;;33.55;17.60;;;;;;;2.88;83.97;101049.50;5095125;28;20131;-77
2022/03/10 03:41:55;;;;;;;33.85;17.27;;;;;;;2.83;83.92;101057.50;5095366;28;20068;-76
2022/03/10 03:44:23;;;;;;;34.03;17.75;;;;;;;2.78;84.30;101056.69;5095521;28;20456;-77
2022/03/10 03:46:52;;;;;;;35.47;18.17;;;;;;;2.95;83.47;101071.38;5077136;28;20048;-75
2022/03/10 03:49:20;;;;;;;31.23;17.23;;;;;;;2.80;84.49;101068.09;5076682;28;20139;-75
2022/03/10 03:51:49;;;;;;;32.30;17.23;;;;;;;2.85;84.80;101070.66;5094867;28;20040;-75
2022/03/10 03:54:18;;;;;;;32.17;17.83;;;;;;;2.78;85.16;101080.41;5076945;28;20075;-76
2022/03/10 03:56:47;;;;;;;31.33;17.65;;;;;;;2.88;85.06;101084.63;5095011;28;20097;-75
2022/03/10 03:59:20;;;;;;;35.30;18.77;;;;;;;2.87;84.68;101087.31;5094684;28;20044;-77
2022/03/10 04:01:49;;;;;;;;;;;;;;;2.88;84.24;101089.91;5095481;28;20098;-76
2022/03/10 04:04:19;;;;;;;29.50;15.57;;;;;;;2.96;83.58;101096.84;5094868;28;19981;-76
2022/03/10 04:06:50;;;;;;;31.10;16.80;;;;;;;2.96;83.07;101094.19;5094759;28;20400;-76
2022/03/10 04:09:18;;;;;;;35.63;17.20;;;;;;;2.94;83.47;101101.28;5094514;28;20046;-76
2022/03/10 04:11:46;;;;;;;33.47;16.75;;;;;;;2.88;82.97;101104.84;5094947;28;20047;-76
2022/03/10 04:14:19;;;;;;;27.02;14.85;;;;;;;3.04;81.51;101113.41;5094441;28;20044;-76
2022/03/10 04:16:47;;;;;;;27.65;15.85;;;;;;;2.96;81.66;101112.66;5076654;28;20094;-75
2022/03/10 04:19:18;;;;;;;30.55;16.63;;;;;;;2.85;82.01;101120.72;5094762;28;20064;-75
2022/03/10 04:21:47;;;;;;;27.33;14.70;;;;;;;2.91;80.62;101123.28;5094001;28;20048;-74
2022/03/10 04:24:15;;;;;;;31.70;15.98;;;;;;;2.85;80.57;101133.91;5076307;28;20072;-76
2022/03/10 04:26:44;;;;;;;29.52;15.65;;;;;;;2.75;80.89;101133.16;5094128;28;20067;-76
2022/03/10 04:29:13;;;;;;;27.55;14.65;;;;;;;2.85;79.76;101140.03;5076234;28;20049;-76
2022/03/10 04:31:43;;;;;;;29.30;15.00;;;;;;;2.81;79.24;101140.97;5094132;28;20048;-77
2022/03/10 04:34:12;;;;;;;25.83;14.73;;;;;;;2.92;77.79;101150.50;5094647;28;20048;-77
2022/03/10 04:36:40;;;;;;;27.77;15.70;;;;;;;2.87;77.89;101159.31;5075732;28;20093;-77
2022/03/10 04:39:09;;;;;;;29.27;14.32;;;;;;;2.94;76.78;101161.88;5093713;28;20040;-76
2022/03/10 04:41:37;;;;;;;26.50;13.95;;;;;;;2.69;76.15;101164.84;5093725;28;20048;-77
2022/03/10 04:44:06;;;;;;;19.58;11.20;;;;;;;2.65;73.80;101168.41;5076394;28;20047;-76
2022/03/10 04:46:34;;;;;;;20.77;10.90;;;;;;;2.80;72.54;101168.22;5093780;28;20043;-76
2022/03/10 04:49:04;;;;;;;21.58;11.13;;;;;;;2.79;72.56;101179.63;5075836;28;20056;-76
2022/03/10 04:51:33;;;;;;;19.20;10.52;;;;;;;2.61;71.58;101179.03;5093839;28;20086;-77
2022/03/10 04:54:01;;;;;;;20.15;10.40;;;;;;;2.67;69.48;101181.56;5094011;28;20048;-77
2022/03/10 04:56:29;;;;;;;18.05;9.77;;;;;;;2.69;70.31;101190.31;5093222;28;20509;-77
2022/03/10 04:58:57;;;;;;;15.93;8.68;;;;;;;2.81;67.69;101191.03;5093881;28;20036;-78
2022/03/10 05:01:25;;;;;;;16.25;8.85;;;;;;;2.57;67.64;101189.59;5093552;28;20048;-77
2022/03/10 05:03:54;;;;;;;17.38;9.25;;;;;;;2.56;67.56;101184.34;5093957;28;20054;-79
2022/03/10 05:06:28;;;;;;;13.30;7.55;;;;;;;2.52;64.10;101180.00;5093286;28;20123;-80
2022/03/10 05:08:57;;;;;;;13.05;7.70;;;;;;;2.56;64.04;101194.88;5075669;28;20490;-78
2022/03/10 05:11:25;;;;;;;13.48;6.80;;;;;;;2.44;63.28;101195.91;5093752;28;20044;-78
2022/03/10 05:13:57;;;;;;;14.70;7.40;;;;;;;2.44;61.88;101200.31;5093854;28;20044;-78
2022/03/10 05:16:25;;;;;;;11.13;6.22;;;;;;;2.37;61.46;101210.03;5093534;28;20040;-79
2022/03/10 05:18:55;;;;;;;12.98;6.25;;;;;;;2.35;61.00;101210.94;5093741;28;20410;-77
2022/03/10 05:21:24;;;;;;;13.57;6.43;;;;;;;2.48;60.73;101209.91;5093617;28;20036;-77
2022/03/10 05:23:54;;;;;;;13.75;6.85;;;;;;;2.46;58.81;101216.94;5075105;28;20568;-79
2022/03/10 05:26:22;;;;;;;10.75;5.78;;;;;;;2.37;57.93;101223.19;5075182;28;20058;-78
2022/03/10 05:28:51;;;;;;;9.35;4.97;;;;;;;2.35;56.48;101221.47;5074901;28;20052;-78
2022/03/10 05:31:19;;;;;;;9.38;4.57;;;;;;;2.30;56.82;101234.66;5075281;28;20417;-77
2022/03/10 05:33:48;;;;;;;9.43;5.38;;;;;;;2.37;56.70;101240.75;5093142;28;20817;-77
2022/03/10 05:36:19;;;;;;;9.82;4.95;;;;;;;2.38;56.07;101242.50;5075051;28;20048;-77
2022/03/10 05:38:47;;;;;;;12.43;5.00;;;;;;;2.49;56.06;101240.59;5092746;28;20124;-77
2022/03/10 05:41:21;;;;;;;9.10;4.35;;;;;;;2.40;54.54;101241.56;5092927;28;20047;-77
2022/03/10 05:43:49;;;;;;;10.43;4.95;;;;;;;2.32;54.17;101250.44;5092569;28;20063;-77
2022/03/10 05:46:17;;;;;;;11.32;5.00;;;;;;;2.26;54.52;101254.91;5075250;28;20056;-77
2022/03/10 05:48:51;;;;;;;9.75;4.85;;;;;;;2.26;53.97;101260.16;5092262;28;20050;-77
2022/03/10 05:51:19;;;;;;;10.70;4.40;;;;;;;2.30;53.75;101267.13;5075362;28;20048;-77
2022/03/10 05:53:50;;;;;;;8.70;4.97;;;;;;;2.40;54.16;101259.13;5099796;28;20039;-76
2022/03/10 05:56:18;;;;;;;7.93;4.50;;;;;;;2.32;53.90;101266.25;5097515;28;20096;-77
2022/03/10 05:58:50;;;;;;;8.77;4.68;;;;;;;2.36;54.32;101270.59;5086773;28;20047;-78
2022/03/10 06:01:18;;;;;;;8.80;4.47;;;;;;;2.35;54.53;101276.75;5086611;28;20463;-75
2022/03/10 06:03:48;;;;;;;9.32;4.60;;;;;;;2.35;54.40;101274.13;5094296;28;20128;-72
2022/03/10 06:06:16;;;;;;;7.88;4.10;;;;;;;2.47;54.68;101281.91;5082804;28;20067;-74
2022/03/10 06:08:45;;;;;;;10.10;4.75;;;;;;;2.42;54.82;101287.22;5094802;28;20094;-72
2022/03/10 06:11:14;;;;;;;9.93;4.35;;;;;;;2.36;54.41;101284.66;5101150;28;20039;-73
2022/03/10 06:13:42;;;;;;;9.50;4.43;;;;;;;2.33;54.87;101295.22;5112842;28;20054;-72
2022/03/10 06:16:12;;;;;;;9.68;4.45;;;;;;;2.38;54.88;101290.75;5112836;28;20050;-71
2022/03/10 06:18:40;;;;;;;9.90;4.53;;;;;;;2.48;54.63;101295.03;5095823;28;20040;-72
2022/03/10 06:21:09;;;;;;;7.97;4.50;;;;;;;2.45;54.74;101299.47;5079469;28;20040;-72
2022/03/10 06:23:37;;;;;;;10.93;4.63;;;;;;;2.52;54.68;101306.44;5090914;28;20091;-72
2022/03/10 06:26:09;;;;;;;7.68;4.00;;;;;;;2.52;54.23;101303.81;5074347;28;20056;-71
2022/03/10 06:28:37;;;;;;;6.97;4.18;;;;;;;2.63;53.48;101301.91;5092412;28;20389;-71
2022/03/10 06:31:06;;;;;;;9.13;4.38;;;;;;;2.59;53.40;101308.09;5092309;28;20473;-71
2022/03/10 06:33:36;;;;;;;8.23;4.22;;;;;;;2.58;52.77;101311.63;5074277;28;20058;-76
2022/03/10 06:36:05;;;;;;;10.00;5.38;;;;;;;2.45;53.39;101318.78;5092646;28;20070;-73
2022/03/10 06:38:36;;;;;;;11.88;5.43;;;;;;;2.57;52.88;101317.78;5089807;28;20082;-77
2022/03/10 06:41:04;;;;;;;9.30;4.63;;;;;;;2.56;53.25;101326.56;5094634;28;20059;-69
2022/03/10 06:43:33;;;;;;;8.23;4.32;;;;;;;2.72;52.75;101322.91;5084416;28;20044;-71
2022/03/10 06:46:01;;;;;;;8.10;4.68;;;;;;;2.77;52.38;101326.34;5092647;28;20067;-72
2022/03/10 06:48:29;;;;;;;12.25;4.55;;;;;;;2.92;52.28;101333.22;5092392;28;20036;-71
2022/03/10 06:50:59;;;;;;;10.40;4.88;;;;;;;3.01;52.83;101340.13;5092371;28;20055;-71
2022/03/10 06:53:28;;;;;;;9.23;4.47;;;;;;;3.06;51.97;101338.31;5074575;28;20044;-70
2022/03/10 06:55:56;;;;;;;9.52;4.88;;;;;;;3.17;51.85;101336.41;5074161;28;20052;-71
2022/03/10 06:58:24;;;;;;;10.15;5.07;;;;;;;3.20;51.83;101336.38;5092681;28;20067;-71
2022/03/10 07:00:53;;;;;;;8.18;4.32;;;;;;;3.10;51.28;101340.91;5075623;28;20048;-71
2022/03/10 07:03:27;;;;;;;10.88;5.28;;;;;;;3.21;51.23;101342.53;5078132;28;20447;-72
2022/03/10 07:05:56;;;;;;;12.70;4.93;;;;;;;3.33;50.69;101343.25;5077906;28;20405;-72
2022/03/10 07:08:25;;;;;;;10.95;5.13;;;;;;;3.35;50.33;101345.84;5077986;28;20169;-72
2022/03/10 07:10:53;;;;;;;12.55;5.18;;;;;;;3.25;50.70;101352.13;5077438;28;20405;-72
2022/03/10 07:13:22;;;;;;;10.43;4.85;;;;;;;3.35;49.67;101356.41;5077693;28;20052;-72
2022/03/10 07:15:55;;;;;;;8.73;4.25;;;;;;;3.10;49.57;101367.28;5077579;28;20055;-71
2022/03/10 07:18:24;;;;;;;12.38;4.60;;;;;;;2.94;49.78;101365.69;5077897;28;20068;-72
2022/03/10 07:20:54;;;;;;;9.82;5.13;;;;;;;2.99;50.19;101366.53;5077818;28;20048;-72
2022/03/10 07:23:22;;;;;;;8.73;4.82;;;;;;;3.22;49.05;101366.25;5095318;28;20044;-72
2022/03/10 07:25:52;;;;;;;9.73;5.05;;;;;;;3.25;49.00;101360.91;5077249;28;20106;-72
2022/03/10 07:28:20;;;;;;;9.43;4.85;;;;;;;3.15;48.76;101365.44;5077986;28;20052;-71
2022/03/10 07:30:49;;;;;;;11.07;5.32;;;;;;;3.26;48.55;101367.06;5095957;28;20496;-72
2022/03/10 07:33:17;;;;;;;9.88;5.53;;;;;;;3.36;48.21;101366.06;5078296;28;20044;-73
2022/03/10 07:35:46;;;;;;;10.30;4.90;;;;;;;3.31;47.97;101368.75;5077318;28;20214;-72
2022/03/10 07:38:14;;;;;;;10.77;4.75;;;;;;;3.09;47.40;101367.28;5095391;28;20081;-72
2022/03/10 07:40:42;;;;;;;9.30;4.95;;;;;;;3.34;47.88;101368.72;5077642;28;20076;-73
2022/03/10 07:43:15;;;;;;;10.45;4.55;;;;;;;3.34;46.83;101365.22;5077737;28;20404;-73
2022/03/10 07:45:43;;;;;;;8.85;4.40;;;;;;;3.37;47.01;101357.25;5077314;28;20048;-73
2022/03/10 07:48:11;;;;;;;6.75;3.58;;;;;;;3.43;45.88;101350.13;5095233;28;20101;-73
2022/03/10 07:50:40;;;;;;;8.93;4.70;;;;;;;3.29;46.02;101354.72;5076959;28;20059;-78
2022/03/10 07:53:08;;;;;;;8.77;4.75;;;;;;;3.33;45.50;101359.06;5077463;28;20059;-72
2022/03/10 07:55:37;;;;;;;6.95;4.32;;;;;;;3.40;45.82;101360.72;5077237;28;20427;-72
2022/03/10 07:58:05;;;;;;;10.02;5.00;;;;;;;3.36;46.12;101359.00;5076609;28;20048;-72
2022/03/10 08:00:35;;;;;;;10.52;5.28;;;;;;;3.36;46.34;101363.41;5077034;28;20051;-70
2022/03/10 08:03:07;;;;;;;10.05;4.90;;;;;;;3.23;45.60;101356.56;5077047;28;20086;-70
2022/03/10 08:05:37;;;;;;;9.52;4.65;;;;;;;3.21;45.69;101363.63;5094591;28;20126;-70
2022/03/10 08:08:07;;;;;;;12.38;5.38;;;;;;;3.26;46.44;101367.94;5095168;28;20044;-71
2022/03/10 08:10:35;;;;;;;8.57;4.43;;;;;;;3.24;46.25;101371.50;5078214;28;20138;-69
2022/03/10 08:13:04;;;;;;;8.18;4.95;;;;;;;3.37;45.88;101371.31;5075643;28;20087;-68
2022/03/10 08:15:32;;;;;;;9.90;4.78;;;;;;;3.28;45.21;101376.72;5076703;28;20044;-70
2022/03/10 08:18:02;;;;;;;13.85;6.45;;;;;;;3.43;45.05;101373.00;5094193;28;20043;-69
2022/03/10 08:20:31;;;;;;;9.50;4.60;;;;;;;3.34;44.48;101387.19;5076482;28;20048;-69
2022/03/10 08:22:59;;;;;;;8.80;5.15;;;;;;;3.43;44.36;101381.78;5075992;28;20048;-69
2022/03/10 08:25:28;;;;;;;9.98;4.93;;;;;;;3.33;43.03;101380.16;5076153;28;20044;-69
2022/03/10 08:27:56;;;;;;;8.63;4.10;;;;;;;3.26;43.04;101378.47;5076333;28;20116;-69
2022/03/10 08:30:24;;;;;;;9.77;3.60;;;;;;;3.25;42.67;101371.47;5076709;28;20405;-69
2022/03/10 08:32:53;;;;;;;9.25;4.70;;;;;;;3.08;43.63;101376.06;5076156;28;20044;-69
2022/03/10 08:35:23;;;;;;;7.50;4.60;;;;;;;3.20;43.35;101372.44;5076696;28;20052;-69
2022/03/10 08:37:53;;;;;;;9.18;4.20;;;;;;;3.34;42.33;101362.56;5075988;28;20089;-69
2022/03/10 08:40:22;;;;;;;8.18;3.60;;;;;;;3.23;41.34;101375.03;5076538;28;20097;-69
2022/03/10 08:42:51;;;;;;;12.27;4.50;;;;;;;3.36;40.96;101372.19;5094021;28;20538;-69
2022/03/10 08:45:20;;;;;;;9.02;4.40;;;;;;;3.44;40.99;101378.25;5094472;28;20048;-69
2022/03/10 08:47:49;;;;;;;8.88;4.63;;;;;;;3.45;41.21;101368.56;5075798;28;20051;-68
2022/03/10 08:50:23;;;;;;;9.70;4.43;;;;;;;3.33;40.07;101377.53;5076175;28;20408;-68
2022/03/10 08:52:52;;;;;;;8.57;3.83;;;;;;;3.45;40.01;101369.44;5094014;28;20052;-68
2022/03/10 08:55:22;;;;;;;8.25;4.68;;;;;;;3.46;40.47;101375.59;5076042;28;20044;-68
2022/03/10 08:57:51;;;;;;;7.47;3.88;;;;;;;3.47;40.31;101390.53;5093602;28;20484;-68
2022/03/10 09:00:19;;;;;;;8.23;4.28;;;;;;;3.45;40.79;101373.84;5075766;28;20055;-69
2022/03/10 09:02:53;;;;;;;10.73;4.90;;;;;;;3.60;40.70;101378.94;5093860;28;20040;-69
2022/03/10 09:05:22;;;;;;;7.03;4.28;;;;;;;3.72;38.74;101384.03;5075711;28;20047;-68
2022/03/10 09:07:51;;;;;;;11.15;4.40;;;;;;;3.74;38.72;101384.88;5093373;28;20046;-68
2022/03/10 09:10:19;;;;;;;10.50;4.50;;;;;;;3.63;38.93;101396.47;5093777;28;20121;-68
2022/03/10 09:12:48;;;;;;;8.07;4.20;;;;;;;3.73;39.67;101385.78;5075393;28;20054;-68
2022/03/10 09:15:17;;;;;;;8.38;4.50;;;;;;;3.72;38.74;101388.44;5075733;28;20131;-69
2022/03/10 09:17:45;;;;;;;7.32;4.00;;;;;;;3.78;39.00;101388.38;5093420;28;20067;-68
2022/03/10 09:20:17;;;;;;;7.70;3.58;;;;;;;3.91;37.54;101392.56;5075460;28;20056;-68
2022/03/10 09:22:46;;;;;;;8.38;4.00;;;;;;;3.91;37.95;101379.34;5076150;28;20131;-67
2022/03/10 09:25:15;;;;;;;7.63;4.00;;;;;;;3.88;37.93;101383.81;5074434;28;20139;-69
2022/03/10 09:27:43;;;;;;;8.45;4.15;;;;;;;4.00;37.76;101381.88;5075362;28;20112;-69
2022/03/10 09:30:13;;;;;;;8.73;4.40;;;;;;;4.22;37.00;101384.16;5075033;28;20505;-69
2022/03/10 09:32:44;;;;;;;7.85;4.10;;;;;;;4.11;36.83;101372.91;5075265;28;20044;-69
2022/03/10 09:35:14;;;;;;;8.65;4.00;;;;;;;4.09;36.08;101388.78;5075268;28;20054;-68
2022/03/10 09:37:43;;;;;;;6.45;3.50;;;;;;;4.25;35.56;101385.00;5075418;28;20052;-68
2022/03/10 09:40:13;;;;;;;8.23;4.07;;;;;;;4.50;35.24;101389.88;5074985;28;20048;-68
2022/03/10 09:42:46;;;;;;;10.30;4.38;;;;;;;4.24;34.91;101392.94;5075246;28;20101;-69
2022/03/10 09:45:16;;;;;;;9.38;3.78;;;;;;;4.24;33.99;101387.66;5075678;28;20052;-69
2022/03/10 09:47:46;;;;;;;7.78;4.28;;;;;;;4.29;33.24;101401.66;5093305;28;20066;-69
2022/03/10 09:50:17;;;;;;;7.35;3.85;;;;;;;4.15;33.82;101414.19;5093508;28;20053;-69
2022/03/10 09:52:47;;;;;;;6.57;3.33;;;;;;;4.19;33.70;101400.06;5075172;28;20048;-68
2022/03/10 09:55:18;;;;;;;8.20;3.33;;;;;;;4.24;33.38;101408.78;5075069;28;20079;-69
2022/03/10 09:57:48;;;;;;;5.75;3.03;;;;;;;4.18;33.17;101401.84;5074658;28;20134;-69
2022/03/10 10:00:18;;;;;;;6.88;3.50;;;;;;;4.27;34.14;101403.47;5075007;28;20048;-69
2022/03/10 10:02:46;;;;;;;7.78;3.30;;;;;;;4.60;34.08;101402.88;5093247;28;20036;-68
2022/03/10 10:05:25;;;;;;;7.10;3.67;;;;;;;4.59;32.95;101401.16;5074925;28;20131;-68
2022/03/10 10:08:09;;;;;;;7.20;3.38;;;;;;;4.30;33.60;101404.28;5092893;28;20051;-70
2022/03/10 10:10:43;;;;;;;7.95;3.53;;;;;;;4.37;33.59;101407.69;5092943;28;20036;-68
2022/03/10 10:13:27;;;;;;;5.20;2.75;;;;;;;4.42;32.09;101397.03;5093033;28;20480;-68
2022/03/10 10:15:57;;;;;;;6.25;2.88;;;;;;;4.52;31.45;101407.44;5074696;28;20463;-69
2022/03/10 10:18:27;;;;;;;6.68;2.75;;;;;;;4.31;30.73;101402.50;5074986;28;20126;-69
2022/03/10 10:21:20;;;;;;;5.40;2.90;;;;;;;4.45;31.74;101411.09;5074484;28;20055;-69
2022/03/10 10:23:50;;;;;;;7.35;2.75;;;;;;;4.51;32.09;101407.47;5074644;28;20085;-68
2022/03/10 10:26:26;;;;;;;7.78;3.20;;;;;;;4.70;32.18;101408.00;5074568;28;20106;-69
2022/03/10 10:28:55;;;;;;;5.82;2.60;;;;;;;4.47;31.43;101408.41;5074304;28;20237;-69
2022/03/10 10:31:25;;;;;;;7.68;3.28;;;;;;;4.32;30.90;101414.81;5092963;28;20042;-69
2022/03/10 10:34:00;;;;;;;5.65;2.90;;;;;;;4.58;30.40;101414.41;5074645;28;20135;-70
2022/03/10 10:36:29;;;;;;;17.00;6.57;;;;;;;4.46;29.97;101418.13;5076875;28;20057;-68
2022/03/10 10:39:07;;;;;;;10.23;3.85;;;;;;;4.52;29.54;101414.47;5078137;28;20123;-69
2022/03/10 10:41:37;;;;;;;7.05;3.10;;;;;;;4.44;29.58;101432.22;5078257;28;20056;-69
2022/03/10 10:44:08;;;;;;;6.60;2.83;;;;;;;4.42;29.49;101412.91;5078082;28;20055;-69
2022/03/10 10:46:38;;;;;;;7.43;3.00;;;;;;;4.64;29.38;101409.00;5096678;28;20044;-69
2022/03/10 10:49:10;;;;;;;5.47;2.72;;;;;;;4.48;29.21;101413.69;5096386;28;20094;-69
2022/03/10 10:51:40;;;;;;;6.18;3.05;;;;;;;4.62;29.29;101407.28;5078574;28;20048;-68
2022/03/10 10:54:11;;;;;;;5.95;2.80;;;;;;;4.74;29.44;101415.00;5077910;28;20040;-67
2022/03/10 10:56:48;;;;;;;6.57;2.70;;;;;;;4.85;29.36;101407.75;5096536;28;20122;-69
2022/03/10 10:59:29;;;;;;;5.20;2.88;;;;;;;4.56;29.04;101410.91;5077981;28;20488;-69
2022/03/10 11:02:07;;;;;;;5.00;2.70;;;;;;;4.66;29.52;101416.91;5096122;28;20071;-69
2022/03/10 11:04:36;;;;;;;6.13;3.03;;;;;;;4.92;29.70;101409.38;5096065;28;20451;-68
2022/03/10 11:07:05;;;;;;;6.13;3.22;;;;;;;4.84;29.81;101411.31;5077829;28;20044;-68
2022/03/10 11:09:34;;;;;;;6.53;2.90;;;;;;;4.90;30.06;101405.88;5096188;28;20098;-69
2022/03/10 11:12:04;;;;;;;6.07;2.83;;;;;;;4.95;30.04;101395.22;5095520;28;20064;-69
2022/03/10 11:14:32;;;;;;;6.70;3.85;;;;;;;5.11;30.04;101410.75;5096062;28;20115;-67
2022/03/10 11:17:02;;;;;;;5.88;3.05;;;;;;;5.04;29.79;101413.56;5095771;28;20046;-69
2022/03/10 11:19:35;;;;;;;6.28;3.30;;;;;;;5.13;30.28;101408.09;5095813;28;20440;-68
2022/03/10 11:22:13;;;;;;;6.65;3.17;;;;;;;4.77;30.02;101409.66;5095667;28;20065;-69
2022/03/10 11:25:13;;;;;;;6.60;3.28;;;;;;;4.80;31.09;101404.31;5095513;28;20132;-68
2022/03/10 11:27:51;;;;;;;6.40;3.20;;;;;;;4.84;31.18;101395.44;5055717;28;20045;-68
2022/03/10 11:30:24;;;;;;;8.18;3.63;;;;;;;4.86;31.23;101398.91;5054142;28;20472;-68
2022/03/10 11:33:05;;;;;;;5.95;3.30;;;;;;;4.97;31.25;101391.66;5055605;28;20052;-68
2022/03/10 11:35:38;;;;;;;9.77;3.85;;;;;;;5.15;31.36;101385.13;5055529;28;20041;-68
2022/03/10 11:38:08;;;;;;;6.20;3.00;;;;;;;4.99;31.68;101381.91;5055148;28;20095;-68
2022/03/10 11:40:48;;;;;;;6.22;3.13;;;;;;;5.13;31.72;101390.47;5054145;28;20060;-68
2022/03/10 11:43:27;;;;;;;8.68;3.90;;;;;;;5.05;31.58;101387.09;5055085;28;20044;-68
2022/03/10 11:46:17;;;;;;;6.82;3.22;;;;;;;5.24;31.15;101394.66;5055290;28;20068;-69
2022/03/10 11:49:01;;;;;;;7.43;3.30;;;;;;;5.04;31.36;101389.78;5052852;28;20057;-69